createdAt,value
2023-03-07T00:00:51.458Z,99661.33
2023-03-07T00:03:58.071Z,99656.02
2023-03-07T00:07:03.534Z,99660.42
2023-03-07T00:10:09.656Z,99655.70
2023-03-07T00:13:16.103Z,99649.51
2023-03-07T00:16:24.779Z,99650.13
2023-03-07T00:19:31.599Z,99654.66
2023-03-07T00:22:38.012Z,99648.27
2023-03-07T00:25:38.099Z,99649.86
2023-03-07T00:28:44.007Z,99648.25
2023-03-07T00:31:49.065Z,99645.76
2023-03-07T00:34:56.534Z,99639.37
2023-03-07T00:38:01.278Z,99635.12
2023-03-07T00:41:18.851Z,99628.44
2023-03-07T00:44:18.352Z,99623.30
2023-03-07T00:47:05.422Z,99623.48
2023-03-07T00:49:57.509Z,99624.88
2023-03-07T00:52:44.829Z,99624.78
2023-03-07T00:55:44.139Z,99620.74
2023-03-07T00:58:51.276Z,99618.69
2023-03-07T01:01:57.705Z,99623.73
2023-03-07T01:05:03.979Z,99617.10
2023-03-07T01:08:10.068Z,99617.60
2023-03-07T01:11:18.995Z,99609.52
2023-03-07T01:14:25.825Z,99608.17
2023-03-07T01:17:32.703Z,99605.13
2023-03-07T01:20:39.282Z,99605.13
2023-03-07T01:23:45.851Z,99601.43
2023-03-07T01:26:52.223Z,99597.39
2023-03-07T01:29:58.366Z,99595.19
2023-03-07T01:33:06.049Z,99595.19
2023-03-07T01:36:12.252Z,99588.95
2023-03-07T01:39:28.319Z,99587.25
2023-03-07T01:42:36.223Z,99586.91
2023-03-07T01:45:55.278Z,99588.59
2023-03-07T01:49:18.294Z,99582.86
2023-03-07T01:52:41.617Z,99579.42
2023-03-07T01:55:49.201Z,99582.77
2023-03-07T01:58:55.877Z,99581.06
2023-03-07T02:02:01.720Z,99571.63
2023-03-07T02:05:32.100Z,99575.79
2023-03-07T02:08:37.833Z,99564.80
2023-03-07T02:11:43.301Z,99561.82
2023-03-07T02:14:49.308Z,99567.95
2023-03-07T02:17:58.201Z,99560.21
2023-03-07T02:21:24.504Z,99558.87
2023-03-07T02:27:59.553Z,99557.16
2023-03-07T02:31:18.094Z,99548.84
2023-03-07T02:34:41.916Z,99552.77
2023-03-07T02:37:53.294Z,99549.34
2023-03-07T02:40:58.720Z,99547.38
2023-03-07T02:43:59.641Z,99547.00
2023-03-07T02:46:46.619Z,99540.77
2023-03-07T02:49:39.963Z,99538.80
2023-03-07T02:52:35.000Z,99538.91
2023-03-07T02:55:40.317Z,99536.61
2023-03-07T02:58:48.400Z,99538.91
2023-03-07T03:01:54.210Z,99531.68
2023-03-07T03:04:59.875Z,99527.93
2023-03-07T03:08:07.719Z,99532.59
2023-03-07T03:11:13.626Z,99534.73
2023-03-07T03:14:19.884Z,99533.99
2023-03-07T03:17:26.481Z,99534.34
2023-03-07T03:20:32.257Z,99534.23
2023-03-07T03:23:40.638Z,99533.08
2023-03-07T03:26:45.715Z,99530.48
2023-03-07T03:29:53.382Z,99525.18
2023-03-07T03:33:01.009Z,99518.09
2023-03-07T03:36:07.316Z,99515.92
2023-03-07T03:39:15.936Z,99514.52
2023-03-07T03:42:24.082Z,99523.86
2023-03-07T03:45:31.199Z,99515.69
2023-03-07T03:48:36.971Z,99512.14
2023-03-07T03:51:43.360Z,99517.88
2023-03-07T03:54:49.443Z,99516.62
2023-03-07T03:57:56.969Z,99519.67
2023-03-07T04:01:02.509Z,99515.86
2023-03-07T04:04:03.865Z,99512.79
2023-03-07T04:07:11.625Z,99508.75
2023-03-07T04:10:20.213Z,99511.09
2023-03-07T04:13:27.473Z,99507.69
2023-03-07T04:16:33.637Z,99501.95
2023-03-07T04:19:40.983Z,99512.99
2023-03-07T04:22:46.873Z,99510.80
2023-03-07T04:25:55.330Z,99504.47
2023-03-07T04:29:03.129Z,99508.17
2023-03-07T04:32:12.957Z,99509.72
2023-03-07T04:35:15.382Z,99509.48
2023-03-07T04:38:22.602Z,99503.16
2023-03-07T04:41:33.927Z,99499.27
2023-03-07T04:44:51.173Z,99507.34
2023-03-07T04:47:56.967Z,99501.64
2023-03-07T04:51:08.479Z,99502.84
2023-03-07T04:54:14.865Z,99502.84
2023-03-07T04:57:22.632Z,99510.61
2023-03-07T05:00:29.157Z,99507.77
2023-03-07T05:03:35.505Z,99509.45
2023-03-07T05:06:42.524Z,99514.43
2023-03-07T05:09:48.370Z,99509.48
2023-03-07T05:12:56.051Z,99511.53
2023-03-07T05:16:07.409Z,99514.81
2023-03-07T05:19:14.059Z,99520.23
2023-03-07T05:22:21.584Z,99515.02
2023-03-07T05:25:28.659Z,99516.88
2023-03-07T05:28:37.237Z,99511.42
2023-03-07T05:31:43.388Z,99508.74
2023-03-07T05:34:52.551Z,99508.55
2023-03-07T05:37:58.616Z,99513.37
2023-03-07T05:41:04.267Z,99506.72
2023-03-07T05:44:10.494Z,99512.61
2023-03-07T05:47:15.886Z,99506.29
2023-03-07T05:50:22.795Z,99510.45
2023-03-07T05:53:29.065Z,99509.41
2023-03-07T05:56:34.988Z,99512.38
2023-03-07T05:59:40.116Z,99508.13
2023-03-07T06:02:45.600Z,99516.71
2023-03-07T06:05:51.638Z,99516.62
2023-03-07T06:08:51.149Z,99511.49
2023-03-07T06:11:56.004Z,99510.06
2023-03-07T06:15:01.626Z,99519.23
2023-03-07T06:18:09.302Z,99512.73
2023-03-07T06:21:18.416Z,99506.78
2023-03-07T06:24:24.432Z,99494.30
2023-03-07T06:27:30.572Z,99505.69
2023-03-07T06:30:37.684Z,99500.73
2023-03-07T06:33:44.349Z,99490.92
2023-03-07T06:36:51.532Z,99487.26
2023-03-07T06:39:58.029Z,99492.90
2023-03-07T06:43:03.986Z,99494.85
2023-03-07T06:46:09.714Z,99497.48
2023-03-07T06:49:15.190Z,99500.80
2023-03-07T06:52:21.858Z,99508.89
2023-03-07T06:55:29.493Z,99502.08
2023-03-07T06:58:35.795Z,99501.77
2023-03-07T07:01:42.878Z,99496.16
2023-03-07T07:04:50.153Z,99502.52
2023-03-07T07:07:56.132Z,99511.93
2023-03-07T07:11:02.148Z,99522.48
2023-03-07T07:14:09.695Z,99516.75
2023-03-07T07:17:17.074Z,99516.75
2023-03-07T07:20:25.079Z,99514.61
2023-03-07T07:23:26.335Z,99510.56
2023-03-07T07:26:19.633Z,99501.62
2023-03-07T07:29:24.698Z,99503.25
2023-03-07T07:33:18.412Z,99501.61
2023-03-07T07:36:25.764Z,99494.34
2023-03-07T07:39:33.250Z,99486.70
2023-03-07T07:42:38.275Z,99481.01
2023-03-07T07:45:49.062Z,99475.59
2023-03-07T07:48:55.834Z,99480.36
2023-03-07T07:52:01.514Z,99480.89
2023-03-07T07:55:08.749Z,99482.73
2023-03-07T07:58:13.844Z,99484.80
2023-03-07T08:01:34.207Z,99473.90
2023-03-07T08:04:39.749Z,99478.13
2023-03-07T08:07:45.820Z,99476.94
2023-03-07T08:10:51.898Z,99472.81
2023-03-07T08:13:58.339Z,99474.83
2023-03-07T08:17:04.599Z,99478.55
2023-03-07T08:20:13.134Z,99484.31
2023-03-07T08:23:18.357Z,99488.90
2023-03-07T08:26:25.791Z,99483.91
2023-03-07T08:29:32.320Z,99484.34
2023-03-07T08:32:37.194Z,99486.72
2023-03-07T08:35:42.313Z,99492.39
2023-03-07T08:38:47.568Z,99498.42
2023-03-07T08:41:52.965Z,99491.78
2023-03-07T08:44:58.440Z,99483.98
2023-03-07T08:48:10.415Z,99487.31
2023-03-07T08:51:23.158Z,99484.70
2023-03-07T08:54:29.161Z,99479.91
2023-03-07T08:57:35.447Z,99486.48
2023-03-07T09:00:40.710Z,99484.38
2023-03-07T09:03:46.965Z,99486.58
2023-03-07T09:06:52.985Z,99480.48
2023-03-07T09:09:58.833Z,99470.27
2023-03-07T09:13:05.575Z,99474.00
2023-03-07T09:16:11.178Z,99471.27
2023-03-07T09:19:16.763Z,99471.76
2023-03-07T09:22:23.479Z,99475.96
2023-03-07T09:25:29.671Z,99473.66
2023-03-07T09:28:35.873Z,99466.37
2023-03-07T09:31:42.085Z,99471.15
2023-03-07T09:34:48.981Z,99470.83
2023-03-07T09:37:54.515Z,99458.77
2023-03-07T09:41:02.453Z,99464.08
2023-03-07T09:44:33.036Z,99459.51
2023-03-07T09:48:07.017Z,99450.36
2023-03-07T09:51:28.961Z,99449.56
2023-03-07T09:54:41.485Z,99445.23
2023-03-07T09:57:54.720Z,99441.18
2023-03-07T10:01:00.670Z,99437.25
2023-03-07T10:04:21.134Z,99431.50
2023-03-07T10:07:19.127Z,99432.30
2023-03-07T10:10:21.119Z,99424.36
2023-03-07T10:13:51.717Z,99420.95
2023-03-07T10:17:43.162Z,99416.74
2023-03-07T10:20:58.554Z,99408.28
2023-03-07T10:24:26.784Z,99400.94
2023-03-07T10:27:32.090Z,99401.73
2023-03-07T10:30:37.846Z,99394.30
2023-03-07T10:33:43.978Z,99388.01
2023-03-07T10:37:08.156Z,99392.86
2023-03-07T10:40:11.486Z,99378.66
2023-03-07T10:43:17.181Z,99383.53
2023-03-07T10:46:41.551Z,99377.61
2023-03-07T10:50:05.536Z,99365.71
2023-03-07T10:53:10.832Z,99377.82
2023-03-07T10:56:33.510Z,99365.27
2023-03-07T10:59:40.340Z,99354.58
2023-03-07T11:02:57.182Z,99353.73
2023-03-07T11:06:04.007Z,99340.70
2023-03-07T11:09:09.103Z,99346.23
2023-03-07T11:12:27.242Z,99344.69
2023-03-07T11:15:35.902Z,99335.19
2023-03-07T11:18:55.800Z,99341.23
2023-03-07T11:22:05.159Z,99333.70
2023-03-07T11:25:20.432Z,99330.56
2023-03-07T11:28:49.620Z,99335.70
2023-03-07T11:32:06.618Z,99325.57
2023-03-07T11:35:22.509Z,99331.18
2023-03-07T11:38:52.167Z,99338.27
2023-03-07T11:42:02.448Z,99331.81
2023-03-07T11:45:16.968Z,99330.39
2023-03-07T11:48:58.763Z,99328.75
2023-03-07T11:52:43.619Z,99326.17
2023-03-07T11:56:12.564Z,99319.38
2023-03-07T11:59:46.617Z,99322.63
2023-03-07T12:03:00.837Z,99312.53
2023-03-07T12:06:34.541Z,99313.31
2023-03-07T12:10:04.534Z,99313.87
2023-03-07T12:13:31.980Z,99310.01
2023-03-07T12:16:59.374Z,99304.26
2023-03-07T12:20:32.853Z,99312.84
2023-03-07T12:23:48.985Z,99303.05
2023-03-07T12:27:18.443Z,99294.67
2023-03-07T12:31:01.433Z,99290.88
2023-03-07T12:34:12.248Z,99296.51
2023-03-07T12:37:32.131Z,99289.75
2023-03-07T12:40:59.603Z,99288.03
2023-03-07T12:44:09.403Z,99284.64
2023-03-07T12:47:43.806Z,99272.86
2023-03-07T12:51:26.735Z,99276.86
2023-03-07T12:54:48.038Z,99274.44
2023-03-07T12:57:58.048Z,99273.98
2023-03-07T13:01:12.950Z,99277.01
2023-03-07T13:04:34.068Z,99267.13
2023-03-07T13:07:46.859Z,99254.93
2023-03-07T13:10:52.347Z,99257.91
2023-03-07T13:14:05.237Z,99248.47
2023-03-07T13:17:10.063Z,99255.41
2023-03-07T13:20:17.507Z,99257.13
2023-03-07T13:23:30.559Z,99249.23
2023-03-07T13:26:38.193Z,99245.98
2023-03-07T13:30:19.945Z,99247.34
2023-03-07T13:33:36.567Z,99243.24
2023-03-07T13:36:52.726Z,99237.22
2023-03-07T13:39:57.782Z,99242.23
2023-03-07T13:43:03.264Z,99237.06
2023-03-07T13:46:52.480Z,99228.80
2023-03-07T13:49:59.292Z,99220.98
2023-03-07T13:53:04.771Z,99213.05
2023-03-07T13:56:55.501Z,99213.98
2023-03-07T14:00:42.213Z,99215.74
2023-03-07T14:03:54.798Z,99222.65
2023-03-07T14:07:21.001Z,99219.14
2023-03-07T14:10:39.271Z,99227.94
2023-03-07T14:14:14.568Z,99217.74
2023-03-07T14:17:27.044Z,99221.16
2023-03-07T14:21:00.034Z,99223.72
2023-03-07T14:24:07.201Z,99226.25
2023-03-07T14:27:16.133Z,99222.40
2023-03-07T14:30:29.546Z,99222.61
2023-03-07T14:33:36.271Z,99207.97
2023-03-07T14:36:46.124Z,99211.81
2023-03-07T14:40:30.105Z,99211.97
2023-03-07T14:44:11.807Z,99210.98
2023-03-07T14:47:39.144Z,99203.90
2023-03-07T14:50:47.571Z,99200.02
2023-03-07T14:53:53.176Z,99196.88
2023-03-07T14:56:59.735Z,99197.31
2023-03-07T15:00:37.060Z,99195.05
2023-03-07T15:03:43.485Z,99192.58
2023-03-07T15:06:57.225Z,99200.03
2023-03-07T15:10:03.489Z,99187.30
2023-03-07T15:13:13.483Z,99194.89
2023-03-07T15:16:27.476Z,99192.80
2023-03-07T15:19:36.897Z,99190.33
2023-03-07T15:22:47.827Z,99181.88
2023-03-07T15:25:54.494Z,99183.25
2023-03-07T15:29:00.585Z,99183.30
2023-03-07T15:32:14.741Z,99198.86
2023-03-07T15:35:30.621Z,99196.61
2023-03-07T15:38:39.127Z,99207.14
2023-03-07T15:41:48.440Z,99218.14
2023-03-07T15:44:54.716Z,99214.97
2023-03-07T15:48:01.199Z,99194.50
2023-03-07T15:51:09.429Z,99201.36
2023-03-07T15:54:39.120Z,99191.34
2023-03-07T15:57:52.679Z,99183.02
2023-03-07T16:00:58.685Z,99173.84
2023-03-07T16:04:11.297Z,99179.09
2023-03-07T16:07:17.923Z,99177.53
2023-03-07T16:10:24.306Z,99169.28
2023-03-07T16:13:31.911Z,99164.12
2023-03-07T16:16:39.581Z,99165.72
2023-03-07T16:22:59.272Z,99179.45
2023-03-07T16:26:04.546Z,99187.34
2023-03-07T16:29:10.758Z,99183.68
2023-03-07T16:32:17.252Z,99193.05
2023-03-07T16:35:34.351Z,99189.16
2023-03-07T16:38:40.212Z,99184.40
2023-03-07T16:41:47.205Z,99178.31
2023-03-07T16:44:53.853Z,99179.41
2023-03-07T16:48:01.557Z,99175.92
2023-03-07T16:51:07.328Z,99186.76
2023-03-07T16:54:14.554Z,99183.07
2023-03-07T16:57:24.125Z,99177.89
2023-03-07T17:00:33.800Z,99181.16
2023-03-07T17:03:40.297Z,99190.36
2023-03-07T17:06:48.757Z,99184.50
2023-03-07T17:09:53.612Z,99184.34
2023-03-07T17:13:00.472Z,99185.45
2023-03-07T17:16:07.009Z,99184.64
2023-03-07T17:19:12.300Z,99181.81
2023-03-07T17:22:20.239Z,99183.04
2023-03-07T17:25:25.590Z,99185.84
2023-03-07T17:28:32.935Z,99179.83
2023-03-07T17:31:39.520Z,99186.22
2023-03-07T17:34:46.660Z,99184.84
2023-03-07T17:37:53.959Z,99186.49
2023-03-07T17:40:59.388Z,99190.30
2023-03-07T17:44:04.988Z,99188.05
2023-03-07T17:47:11.545Z,99187.88
2023-03-07T17:50:17.209Z,99187.58
2023-03-07T17:53:24.023Z,99194.64
2023-03-07T17:56:30.342Z,99195.94
2023-03-07T17:59:36.036Z,99190.02
2023-03-07T18:02:42.334Z,99187.16
2023-03-07T18:05:48.721Z,99186.25
2023-03-07T18:08:53.851Z,99195.11
2023-03-07T18:12:00.648Z,99206.17
2023-03-07T18:15:07.336Z,99226.68
2023-03-07T18:18:14.087Z,99224.80
2023-03-07T18:21:22.925Z,99222.77
2023-03-07T18:24:42.596Z,99236.54
2023-03-07T18:27:48.199Z,99231.39
2023-03-07T18:30:55.216Z,99240.95
2023-03-07T18:34:08.192Z,99245.05
2023-03-07T18:37:15.612Z,99257.65
2023-03-07T18:40:22.569Z,99250.05
2023-03-07T18:43:28.335Z,99257.21
2023-03-07T18:46:39.547Z,99268.22
2023-03-07T18:49:46.046Z,99262.13
2023-03-07T18:52:53.004Z,99266.87
2023-03-07T18:56:00.117Z,99272.84
2023-03-07T18:59:08.387Z,99269.11
2023-03-07T19:02:13.131Z,99268.41
2023-03-07T19:05:19.257Z,99260.78
2023-03-07T19:08:25.086Z,99264.00
2023-03-07T19:11:33.634Z,99264.16
2023-03-07T19:14:40.615Z,99259.56
2023-03-07T19:17:45.569Z,99265.87
2023-03-07T19:20:56.200Z,99259.23
2023-03-07T19:24:02.669Z,99267.38
2023-03-07T19:27:07.481Z,99262.13
2023-03-07T19:30:13.304Z,99261.80
2023-03-07T19:33:19.107Z,99259.09
2023-03-07T19:36:30.012Z,99260.45
2023-03-07T19:39:36.174Z,99261.45
2023-03-07T19:42:41.891Z,99264.68
2023-03-07T19:45:48.247Z,99265.22
2023-03-07T19:48:54.897Z,99264.03
2023-03-07T19:52:01.614Z,99262.48
2023-03-07T19:55:07.586Z,99263.34
2023-03-07T19:58:13.764Z,99262.16
2023-03-07T20:01:27.742Z,99267.72
2023-03-07T20:04:34.324Z,99267.86
2023-03-07T20:07:39.941Z,99274.63
2023-03-07T20:10:45.484Z,99278.16
2023-03-07T20:13:53.194Z,99292.22
2023-03-07T20:16:58.690Z,99291.53
2023-03-07T20:20:06.380Z,99293.03
2023-03-07T20:23:04.593Z,99285.08
2023-03-07T20:26:23.791Z,99289.48
2023-03-07T20:29:31.625Z,99290.99
2023-03-07T20:32:38.181Z,99296.20
2023-03-07T20:35:45.123Z,99299.74
2023-03-07T20:38:45.094Z,99299.56
2023-03-07T20:41:51.641Z,99292.63
2023-03-07T20:44:57.684Z,99290.06
2023-03-07T20:48:03.642Z,99295.32
2023-03-07T20:51:08.652Z,99291.72
2023-03-07T20:54:20.119Z,99283.90
2023-03-07T20:57:26.123Z,99286.73
2023-03-07T21:00:32.336Z,99296.34
2023-03-07T21:03:38.282Z,99297.53
2023-03-07T21:06:46.533Z,99300.37
2023-03-07T21:09:46.032Z,99310.47
2023-03-07T21:12:39.755Z,99318.05
2023-03-07T21:15:47.952Z,99315.84
2023-03-07T21:18:54.643Z,99315.54
2023-03-07T21:22:00.486Z,99314.49
2023-03-07T21:25:06.523Z,99316.25
2023-03-07T21:28:13.183Z,99318.08
2023-03-07T21:31:31.075Z,99318.75
2023-03-07T21:34:37.819Z,99321.69
2023-03-07T21:37:44.672Z,99323.38
2023-03-07T21:40:50.602Z,99325.50
2023-03-07T21:43:57.166Z,99326.85
2023-03-07T21:47:03.505Z,99322.81
2023-03-07T21:50:11.090Z,99322.19
2023-03-07T21:53:16.805Z,99320.69
2023-03-07T21:56:25.340Z,99328.52
2023-03-07T21:59:31.310Z,99325.68
2023-03-07T22:02:37.054Z,99330.61
2023-03-07T22:05:36.440Z,99330.47
2023-03-07T22:08:22.363Z,99326.89
2023-03-07T22:11:16.671Z,99330.28
2023-03-07T22:14:04.500Z,99332.67
2023-03-07T22:16:57.298Z,99335.55
2023-03-07T22:19:44.570Z,99332.52
2023-03-07T22:22:37.029Z,99334.38
2023-03-07T22:25:30.553Z,99332.19
2023-03-07T22:28:36.680Z,99333.54
2023-03-07T22:31:41.901Z,99328.92
2023-03-07T22:34:47.343Z,99334.49
2023-03-07T22:37:52.663Z,99336.63
2023-03-07T22:40:58.296Z,99339.28
2023-03-07T22:44:03.122Z,99348.17
2023-03-07T22:47:08.418Z,99341.55
2023-03-07T22:50:13.516Z,99342.80
2023-03-07T22:53:18.362Z,99354.45
2023-03-07T22:56:34.701Z,99347.27
2023-03-07T22:59:39.461Z,99353.63
2023-03-07T23:02:46.057Z,99354.13
2023-03-07T23:05:52.046Z,99354.81
2023-03-07T23:09:02.969Z,99359.24
2023-03-07T23:12:09.141Z,99350.62
2023-03-07T23:15:15.323Z,99358.44
2023-03-07T23:18:20.965Z,99364.15
2023-03-07T23:21:27.380Z,99365.26
2023-03-07T23:24:32.961Z,99363.23
2023-03-07T23:27:39.580Z,99371.48
2023-03-07T23:30:45.758Z,99365.93
2023-03-07T23:33:51.660Z,99367.45
2023-03-07T23:36:58.354Z,99370.33
2023-03-07T23:40:05.795Z,99376.59
2023-03-07T23:43:12.254Z,99377.47
2023-03-07T23:46:18.873Z,99373.63
2023-03-07T23:49:26.361Z,99375.39
2023-03-07T23:52:31.472Z,99371.73
2023-03-07T23:55:37.377Z,99369.40
2023-03-07T23:58:43.211Z,99370.81
